map of NBW home
NBW - Airport
Location
City:  Guantánamo, Guantánamo, Cuba
Name:NAS Guantánamo Bay
ICAO:MUGM
IATA:NBW

Details
Type:Airport (Aerodrome, Airfield)
Use:Military, International (customs port of entry)
Latitude:19°54'23"N (19.906458)
Longitude:75°12'25"W (-75.207055)
Datum:WGS 1984
Elevation:56 ft (17 m)
Variation:8.83°W (WMM2015v2 magnetic declination)
-0.08° annual change
Runways:1
Longest:8000 × 200 ft (2438 × 61 m), paved

Time
Time Zone:UTC-5 (DST-4)
Local Time:

Weather
METAR:MUGM 041356Z 35005KT 9999 FEW035 BKN080 24/21 A3002 RMK SLP164 T02410212

Related Locations
Nearby:
Farthest:EXM: 11828 mi / 19035 km
Exmouth Gulf, WA, AU

Find:

   beyond  
but within

Other Information
Maps:
NOTAMs:
Links:
Sources:

  
  • flag of Cuba
  

Airport Diagram

Airport diagram for NBW

Larger airport diagram (OBSOLETE) from NGA

Sectional Chart

Flight Planning
at skyvector.com

Satellite Image

Google Maps Satellite view

 

Copyright © 2004-2019 Karl L. Swartz. All rights reserved.
The Great Circle Mapper name and logo are trademarks of the Great Circle Mapper.
All other trademarks mentioned herein belong to their respective owners.
Please see credits for attibutions and further copyright information.

  Follow gcmap on Facebook Follow gcmap on Twitter GCmap on LinkedIn

hCard Microformat

Geo Microformat